Time;durP1;ratioP1;P1;durP2;ratioP2;P2;SDS_P1;SDS_P2;PMS_P1;PMS_P2;Temp;Humidity;BMP_temperature;BMP_pressure;BME280_temperature;BME280_humidity;BME280_pressure;Samples;Min_cycle;Max_cycle;Signal;HPM_P1;HPM_P2
2022/04/05 00:02:20;;;;;;;3.90;1.48;;;16.60;94.20;;;;;;5093081;28;20125;-72
2022/04/05 00:04:46;;;;;;;3.90;1.75;;;16.60;94.30;;;;;;5074927;28;20025;-76
2022/04/05 00:07:12;;;;;;;4.63;2.00;;;16.60;94.30;;;;;;5093562;28;20030;-74
2022/04/05 00:09:37;;;;;;;6.18;1.95;;;16.60;94.20;;;;;;5093576;28;20085;-75
2022/04/05 00:12:04;;;;;;;5.15;2.00;;;16.60;93.90;;;;;;5093366;28;20089;-76
2022/04/05 00:14:29;;;;;;;5.07;1.90;;;16.60;94.50;;;;;;5093869;28;20039;-73
2022/04/05 00:16:55;;;;;;;5.07;1.95;;;16.60;94.40;;;;;;5093817;28;20548;-71
2022/04/05 00:19:22;;;;;;;6.15;2.10;;;16.60;94.30;;;;;;5093508;28;20056;-72
2022/04/05 00:21:49;;;;;;;4.63;1.80;;;16.50;94.20;;;;;;5092848;28;20047;-74
2022/04/05 00:24:16;;;;;;;5.35;2.00;;;16.50;94.30;;;;;;5093706;28;20714;-76
2022/04/05 00:26:41;;;;;;;5.15;1.90;;;16.50;94.50;;;;;;5092929;28;20471;-74
2022/04/05 00:29:07;;;;;;;3.60;1.70;;;16.50;94.50;;;;;;5093090;28;20024;-73
2022/04/05 00:31:33;;;;;;;5.72;1.73;;;16.50;94.60;;;;;;5092632;28;20024;-74
2022/04/05 00:33:58;;;;;;;6.45;1.98;;;16.50;94.50;;;;;;5093263;28;20020;-73
2022/04/05 00:36:24;;;;;;;5.47;2.17;;;16.50;94.40;;;;;;5074686;28;20040;-73
2022/04/05 00:38:50;;;;;;;5.93;2.30;;;16.40;94.30;;;;;;5092386;28;20046;-73
2022/04/05 00:41:15;;;;;;;6.47;2.60;;;16.40;94.80;;;;;;5092727;28;20040;-72
2022/04/05 00:43:41;;;;;;;4.78;2.05;;;16.50;94.40;;;;;;5092750;28;20021;-74
2022/04/05 00:46:07;;;;;;;4.88;2.05;;;16.40;94.50;;;;;;5092800;28;20488;-72
2022/04/05 00:48:52;;;;;;;9.48;3.08;;;16.40;94.80;;;;;;5092408;28;20020;-73
2022/04/05 00:51:19;;;;;;;5.20;1.98;;;16.40;94.70;;;;;;5074561;28;20127;-73
2022/04/05 00:53:47;;;;;;;4.75;2.10;;;16.40;94.40;;;;;;5092376;28;20068;-73
2022/04/05 00:56:17;;;;;;;6.22;2.33;;;16.40;94.70;;;;;;5092250;28;20067;-73
2022/04/05 00:58:47;;;;;;;7.38;3.13;;;16.40;94.90;;;;;;5074009;28;20467;-72
2022/04/05 01:01:16;;;;;;;5.85;2.50;;;16.40;94.90;;;;;;5092553;28;20028;-73
2022/04/05 01:03:48;;;;;;;4.88;2.00;;;16.40;95.10;;;;;;5059544;28;20161;-73
2022/04/05 01:06:24;;;;;;;4.45;1.98;;;16.40;94.90;;;;;;5092667;28;20027;-74
2022/04/05 01:08:50;;;;;;;6.38;2.25;;;16.40;94.20;;;;;;5092176;28;20448;-72
2022/04/05 01:11:16;;;;;;;5.57;2.20;;;16.40;94.40;;;;;;5074197;28;20032;-73
2022/04/05 01:13:43;;;;;;;5.82;2.42;;;16.40;94.90;;;;;;5091770;28;20165;-72
2022/04/05 01:16:10;;;;;;;5.63;2.03;;;16.30;94.60;;;;;;5073760;28;20040;-72
2022/04/05 01:18:36;;;;;;;5.40;2.22;;;16.30;95.30;;;;;;5091918;28;20027;-73
2022/04/05 01:21:02;;;;;;;7.88;2.90;;;16.30;94.90;;;;;;5092336;28;20028;-73
2022/04/05 01:23:28;;;;;;;7.95;3.25;;;16.30;95.30;;;;;;5092128;28;20023;-73
2022/04/05 01:25:55;;;;;;;6.22;2.55;;;16.30;95.20;;;;;;5073633;28;20035;-76
2022/04/05 01:28:20;;;;;;;5.97;2.20;;;16.30;94.70;;;;;;5073414;28;20024;-73
2022/04/05 01:30:46;;;;;;;6.47;2.50;;;16.30;94.60;;;;;;5091659;28;20028;-74
2022/04/05 01:33:13;;;;;;;9.63;3.13;;;16.30;95.30;;;;;;5073737;28;20074;-74
2022/04/05 01:35:39;;;;;;;7.20;2.97;;;16.30;95.20;;;;;;5091388;28;20127;-74
2022/04/05 01:38:10;;;;;;;5.70;2.40;;;16.30;95.50;;;;;;5091685;28;20024;-74
2022/04/05 01:40:35;;;;;;;7.70;3.50;;;16.30;95.50;;;;;;5091592;28;20077;-73
2022/04/05 01:43:02;;;;;;;5.53;2.15;;;16.30;95.30;;;;;;5091341;28;20016;-74
2022/04/05 01:45:28;;;;;;;7.22;3.05;;;16.20;94.80;;;;;;5092016;28;20028;-74
2022/04/05 01:47:54;;;;;;;5.60;2.10;;;16.30;95.00;;;;;;5091417;28;20080;-74
2022/04/05 01:50:20;;;;;;;6.35;2.50;;;16.30;94.80;;;;;;5091512;28;20028;-74
2022/04/05 01:52:45;;;;;;;8.82;3.53;;;16.20;95.30;;;;;;5091402;28;20028;-73
2022/04/05 01:55:11;;;;;;;6.70;3.53;;;16.20;95.00;;;;;;5091538;28;20035;-74
2022/04/05 01:57:37;;;;;;;5.53;2.72;;;16.20;94.90;;;;;;5091208;28;20020;-75
2022/04/05 02:00:07;;;;;;;10.10;3.65;;;16.20;95.60;;;;;;5091574;28;20020;-75
2022/04/05 02:02:32;;;;;;;6.18;2.40;;;16.20;95.50;;;;;;5091088;28;20024;-74
2022/04/05 02:04:58;;;;;;;7.15;2.58;;;16.30;94.70;;;;;;5091656;28;20383;-74
2022/04/05 02:07:24;;;;;;;5.53;2.45;;;16.30;94.70;;;;;;5073010;28;20859;-74
2022/04/05 02:09:50;;;;;;;5.85;2.75;;;16.30;94.50;;;;;;5091018;28;20036;-75
2022/04/05 02:12:17;;;;;;;6.60;2.40;;;16.30;94.40;;;;;;5091062;28;20034;-73
2022/04/05 02:14:43;;;;;;;6.38;2.55;;;16.40;94.40;;;;;;5091180;28;20106;-73
2022/04/05 02:17:09;;;;;;;7.22;2.83;;;16.40;94.40;;;;;;5091223;28;20099;-73
2022/04/05 02:19:36;;;;;;;6.00;2.80;;;16.40;94.30;;;;;;5091412;28;20163;-74
2022/04/05 02:22:02;;;;;;;5.15;2.47;;;16.40;94.30;;;;;;5091182;28;20111;-73
2022/04/05 02:24:28;;;;;;;4.38;1.90;;;16.40;94.30;;;;;;5091410;28;20027;-74
2022/04/05 02:26:54;;;;;;;4.68;2.15;;;16.40;94.20;;;;;;5090886;28;20432;-74
2022/04/05 02:29:20;;;;;;;5.32;2.15;;;16.50;94.20;;;;;;5091443;28;20043;-74
2022/04/05 02:31:46;;;;;;;5.55;2.47;;;16.50;94.10;;;;;;5090917;28;20073;-74
2022/04/05 02:34:12;;;;;;;4.90;2.10;;;16.50;94.10;;;;;;5091345;28;20039;-73
2022/04/05 02:36:38;;;;;;;6.07;2.38;;;16.50;94.10;;;;;;5090949;28;20111;-73
2022/04/05 02:39:05;;;;;;;4.93;2.00;;;16.50;94.10;;;;;;5091006;28;20020;-74
2022/04/05 02:41:31;;;;;;;6.50;2.55;;;16.50;94.10;;;;;;5090636;28;20099;-74
2022/04/05 02:43:58;;;;;;;4.13;2.10;;;16.50;94.10;;;;;;5091312;28;20099;-77
2022/04/05 02:46:24;;;;;;;4.68;2.10;;;16.50;94.20;;;;;;5090942;28;20027;-75
2022/04/05 02:48:53;;;;;;;4.75;1.90;;;16.50;94.10;;;;;;5091035;28;20039;-75
2022/04/05 02:51:19;;;;;;;4.03;1.83;;;16.50;94.20;;;;;;5090946;28;20076;-74
2022/04/05 02:53:44;;;;;;;4.85;2.05;;;16.50;94.20;;;;;;5090730;28;20032;-74
2022/04/05 02:56:10;;;;;;;3.72;1.85;;;16.50;94.20;;;;;;5090840;28;20068;-73
2022/04/05 02:58:36;;;;;;;4.85;1.67;;;16.50;94.20;;;;;;5090643;28;20020;-76
2022/04/05 03:01:04;;;;;;;5.65;2.10;;;16.50;94.20;;;;;;5090891;28;20024;-74
2022/04/05 03:03:30;;;;;;;5.55;2.22;;;16.60;94.20;;;;;;5073103;28;20106;-74
2022/04/05 03:05:56;;;;;;;5.70;2.30;;;16.50;94.20;;;;;;5094933;28;20024;-74
2022/04/05 03:08:22;;;;;;;3.90;1.95;;;16.60;94.20;;;;;;5094459;28;20031;-75
2022/04/05 03:10:48;;;;;;;5.65;2.00;;;16.50;94.20;;;;;;5094515;28;20391;-73
2022/04/05 03:13:14;;;;;;;7.03;2.30;;;16.50;94.20;;;;;;5094543;28;20020;-75
2022/04/05 03:15:40;;;;;;;5.57;2.10;;;16.50;94.20;;;;;;5094006;28;20042;-74
2022/04/05 03:18:06;;;;;;;6.50;2.50;;;16.50;94.20;;;;;;5094563;28;20349;-75
2022/04/05 03:20:31;;;;;;;3.40;1.85;;;16.50;94.20;;;;;;5094350;28;20080;-75
2022/04/05 03:22:59;;;;;;;4.22;2.22;;;16.50;94.20;;;;;;5094727;28;20055;-75
2022/04/05 03:25:25;;;;;;;5.35;2.28;;;16.50;94.20;;;;;;5076307;28;20028;-75
2022/04/05 03:27:51;;;;;;;5.63;2.00;;;16.50;94.20;;;;;;5093798;28;20028;-73
2022/04/05 03:30:20;;;;;;;4.28;1.60;;;16.60;94.30;;;;;;5093996;28;20476;-73
2022/04/05 03:32:46;;;;;;;4.05;1.90;;;16.50;94.20;;;;;;5094002;28;20498;-77
2022/04/05 03:35:11;;;;;;;4.75;2.20;;;16.60;94.30;;;;;;5094324;28;20032;-78
2022/04/05 03:37:37;;;;;;;4.78;2.15;;;16.60;94.30;;;;;;5093928;28;20077;-79
2022/04/05 03:40:04;;;;;;;3.83;2.05;;;16.60;94.40;;;;;;5093952;28;20038;-76
2022/04/05 03:42:30;;;;;;;3.10;1.75;;;16.60;94.30;;;;;;5093520;28;20106;-74
2022/04/05 03:44:56;;;;;;;4.68;2.00;;;16.50;94.30;;;;;;5094287;28;20111;-74
2022/04/05 03:47:23;;;;;;;4.75;1.67;;;16.50;94.30;;;;;;5093879;28;20481;-74
2022/04/05 03:49:49;;;;;;;4.72;2.05;;;16.50;94.40;;;;;;5093803;28;20374;-75
2022/04/05 03:52:15;;;;;;;4.03;1.80;;;16.60;94.40;;;;;;5093733;28;20028;-74
2022/04/05 03:54:41;;;;;;;3.35;1.90;;;16.60;94.40;;;;;;5075154;28;20357;-74
2022/04/05 03:57:06;;;;;;;5.22;1.98;;;16.50;94.40;;;;;;5093748;28;20036;-73
2022/04/05 03:59:32;;;;;;;2.83;1.70;;;16.60;94.40;;;;;;5075166;28;20032;-74
2022/04/05 04:01:58;;;;;;;3.50;1.80;;;16.60;94.40;;;;;;5093777;28;20028;-73
2022/04/05 04:04:23;;;;;;;3.97;1.98;;;16.50;94.40;;;;;;5093748;28;20028;-74
2022/04/05 04:06:49;;;;;;;3.97;1.73;;;16.50;94.40;;;;;;5093311;28;20333;-73
2022/04/05 04:09:14;;;;;;;5.53;2.03;;;16.60;94.50;;;;;;5093344;28;20024;-76
2022/04/05 04:11:40;;;;;;;3.20;1.83;;;16.60;94.50;;;;;;5093152;28;20070;-75
2022/04/05 04:14:07;;;;;;;3.10;1.88;;;16.60;94.50;;;;;;5092851;28;20361;-73
2022/04/05 04:16:33;;;;;;;3.25;1.90;;;16.60;94.50;;;;;;5093011;28;20067;-74
2022/04/05 04:18:59;;;;;;;3.95;1.80;;;16.60;94.50;;;;;;5075679;28;20052;-73
2022/04/05 04:21:25;;;;;;;5.05;2.00;;;16.50;94.50;;;;;;5093481;28;20028;-73
2022/04/05 04:23:50;;;;;;;4.05;1.73;;;16.60;94.50;;;;;;5092850;28;20020;-74
2022/04/05 04:26:16;;;;;;;3.00;1.70;;;16.50;94.50;;;;;;5093227;28;20712;-74
2022/04/05 04:28:42;;;;;;;3.22;1.70;;;16.50;94.50;;;;;;5075083;28;20028;-73
2022/04/05 04:31:07;;;;;;;3.50;1.70;;;16.60;94.60;;;;;;5093106;28;20039;-73
2022/04/05 04:33:33;;;;;;;2.75;1.70;;;16.60;94.60;;;;;;5074586;28;20024;-74
2022/04/05 04:35:59;;;;;;;5.53;2.10;;;16.60;94.60;;;;;;5092949;28;20118;-75
2022/04/05 04:38:25;;;;;;;3.85;2.00;;;16.60;94.60;;;;;;5077138;28;20023;-74
2022/04/05 04:40:51;;;;;;;3.78;1.63;;;16.60;94.60;;;;;;5092443;28;20028;-73
2022/04/05 04:43:17;;;;;;;4.80;2.20;;;16.60;94.70;;;;;;5092677;28;20027;-75
2022/04/05 04:45:43;;;;;;;4.53;2.00;;;16.60;94.70;;;;;;5091892;28;20020;-72
2022/04/05 04:48:10;;;;;;;3.15;1.60;;;16.60;94.70;;;;;;5093054;28;20055;-75
2022/04/05 04:50:35;;;;;;;4.18;1.80;;;16.60;94.70;;;;;;5092377;28;20035;-75
2022/04/05 04:53:01;;;;;;;4.45;1.92;;;16.60;94.70;;;;;;5092453;28;20020;-73
2022/04/05 04:55:28;;;;;;;3.15;1.70;;;16.60;94.70;;;;;;5092551;28;20082;-75
2022/04/05 04:57:54;;;;;;;5.20;2.40;;;16.60;94.70;;;;;;5092562;28;20146;-73
2022/04/05 05:00:19;;;;;;;4.18;1.70;;;16.60;94.70;;;;;;5092250;28;20106;-74
2022/04/05 05:02:46;;;;;;;4.80;2.03;;;16.60;94.70;;;;;;5092000;28;20475;-72
2022/04/05 05:05:15;;;;;;;4.07;1.75;;;16.60;94.70;;;;;;5092642;28;20473;-74
2022/04/05 05:07:40;;;;;;;5.32;1.98;;;16.60;94.70;;;;;;5091565;28;20112;-72
2022/04/05 05:10:07;;;;;;;3.25;1.67;;;16.60;94.70;;;;;;5091821;28;20056;-73
2022/04/05 05:12:34;;;;;;;3.17;1.63;;;16.70;94.70;;;;;;5073688;28;20101;-73
2022/04/05 05:14:59;;;;;;;5.15;1.77;;;16.60;94.70;;;;;;5092632;28;20484;-73
2022/04/05 05:17:25;;;;;;;4.75;2.38;;;16.70;94.70;;;;;;5092761;28;20028;-73
2022/04/05 05:19:50;;;;;;;4.78;1.90;;;16.70;94.70;;;;;;5092166;28;20028;-73
2022/04/05 05:22:16;;;;;;;3.40;1.92;;;16.70;94.70;;;;;;5092327;28;20074;-73
2022/04/05 05:24:42;;;;;;;3.50;1.92;;;16.70;94.70;;;;;;5091997;28;20046;-73
2022/04/05 05:27:07;;;;;;;4.57;2.05;;;16.70;94.70;;;;;;5091162;28;20471;-73
2022/04/05 05:29:33;;;;;;;4.18;1.80;;;16.70;94.70;;;;;;5091957;28;20467;-73
2022/04/05 05:31:58;;;;;;;3.95;1.67;;;16.70;94.80;;;;;;5092181;28;20476;-74
2022/04/05 05:34:24;;;;;;;3.75;1.70;;;16.70;94.80;;;;;;5073121;28;20040;-75
2022/04/05 05:36:50;;;;;;;2.80;1.40;;;16.70;94.80;;;;;;5091754;28;20075;-73
2022/04/05 05:39:16;;;;;;;3.30;1.50;;;16.80;94.80;;;;;;5091988;28;20031;-74
2022/04/05 05:41:42;;;;;;;4.20;1.50;;;16.80;94.60;;;;;;5091668;28;20081;-73
2022/04/05 05:44:07;;;;;;;2.10;1.17;;;16.80;94.60;;;;;;5091373;28;20099;-74
2022/04/05 05:46:33;;;;;;;4.80;1.92;;;16.90;94.60;;;;;;5091197;28;20111;-73
2022/04/05 05:48:58;;;;;;;13.63;1.80;;;16.90;94.70;;;;;;5091552;28;20028;-73
2022/04/05 05:51:24;;;;;;;7.07;1.58;;;16.90;95.10;;;;;;5091028;28;20040;-76
2022/04/05 05:53:50;;;;;;;4.13;1.77;;;16.90;95.70;;;;;;5091299;28;20512;-76
2022/04/05 05:56:16;;;;;;;5.68;1.70;;;17.00;95.70;;;;;;5090990;28;20043;-73
2022/04/05 05:58:41;;;;;;;5.80;2.40;;;17.10;96.00;;;;;;5091256;28;20093;-74
2022/04/05 06:01:07;;;;;;;4.70;2.10;;;17.20;96.00;;;;;;5090651;28;20432;-75
2022/04/05 06:03:33;;;;;;;5.68;2.40;;;17.20;96.00;;;;;;5090995;28;20024;-76
2022/04/05 06:05:58;;;;;;;6.15;2.70;;;17.20;96.90;;;;;;5092387;28;20399;-76
2022/04/05 06:08:24;;;;;;;9.55;2.60;;;17.20;96.60;;;;;;5091484;28;20036;-79
2022/04/05 06:10:50;;;;;;;7.22;2.67;;;17.10;96.50;;;;;;5073418;28;20352;-78
2022/04/05 06:13:16;;;;;;;7.05;2.30;;;17.10;96.20;;;;;;5091625;28;20024;-76
2022/04/05 06:15:42;;;;;;;5.05;2.20;;;17.20;96.60;;;;;;5091139;28;20028;-74
2022/04/05 06:18:07;;;;;;;7.47;2.40;;;17.30;96.20;;;;;;5073082;28;20107;-74
2022/04/05 06:20:33;;;;;;;5.03;2.53;;;17.30;96.00;;;;;;5091696;28;20032;-75
2022/04/05 06:23:04;;;;;;;5.28;2.33;;;17.30;96.00;;;;;;5091568;28;20444;-74
2022/04/05 06:25:35;;;;;;;5.70;2.35;;;17.30;96.00;;;;;;5091210;28;20016;-74
2022/04/05 06:28:08;;;;;;;4.10;2.30;;;17.20;96.00;;;;;;5091406;28;20016;-74
2022/04/05 06:30:35;;;;;;;4.38;2.20;;;17.20;96.10;;;;;;5091096;28;20472;-74
2022/04/05 06:33:09;;;;;;;4.28;2.28;;;17.20;96.10;;;;;;5091337;28;20078;-74
2022/04/05 06:35:41;;;;;;;6.97;2.30;;;17.20;96.20;;;;;;5071893;28;20032;-74
2022/04/05 06:38:07;;;;;;;4.82;1.88;;;17.10;96.00;;;;;;5093035;28;20024;-75
2022/04/05 06:40:33;;;;;;;6.28;2.30;;;17.10;96.30;;;;;;5094705;28;20025;-75
2022/04/05 06:42:59;;;;;;;6.85;2.20;;;17.10;96.60;;;;;;5076561;28;20024;-78
2022/04/05 06:45:24;;;;;;;8.15;2.05;;;17.10;96.70;;;;;;5094451;28;20020;-79
2022/04/05 06:47:50;;;;;;;4.30;2.40;;;17.00;97.60;;;;;;5091783;28;20028;-76
2022/04/05 06:50:20;;;;;;;6.55;2.30;;;17.00;97.40;;;;;;5093949;28;20024;-75
2022/04/05 06:52:47;;;;;;;5.45;2.70;;;17.00;97.40;;;;;;5093685;28;20053;-75
2022/04/05 06:55:13;;;;;;;7.20;2.55;;;17.00;97.50;;;;;;5093868;28;20451;-73
2022/04/05 06:57:39;;;;;;;6.63;2.15;;;17.00;97.40;;;;;;5093568;28;20024;-75
2022/04/05 07:00:08;;;;;;;7.10;2.50;;;17.00;97.60;;;;;;5075526;28;20027;-74
2022/04/05 07:02:33;;;;;;;5.65;2.70;;;17.00;97.50;;;;;;5093401;28;20488;-73
2022/04/05 07:04:59;;;;;;;8.52;2.95;;;17.00;97.50;;;;;;5094999;28;20161;-74
2022/04/05 07:07:25;;;;;;;7.60;2.55;;;17.00;97.50;;;;;;5094399;28;20043;-73
2022/04/05 07:09:51;;;;;;;6.47;2.78;;;17.00;97.50;;;;;;5093291;28;20055;-74
2022/04/05 07:12:17;;;;;;;4.97;2.35;;;17.00;97.70;;;;;;5093534;28;20472;-75
2022/04/05 07:14:42;;;;;;;6.45;2.20;;;17.00;97.70;;;;;;5094262;28;20472;-75
2022/04/05 07:17:08;;;;;;;6.68;2.97;;;16.90;97.60;;;;;;5093437;28;20077;-73
2022/04/05 07:19:34;;;;;;;7.32;2.72;;;16.90;98.10;;;;;;5093512;28;20012;-77
2022/04/05 07:22:00;;;;;;;8.20;2.75;;;17.00;97.70;;;;;;5094939;28;20490;-74
2022/04/05 07:24:26;;;;;;;6.28;2.38;;;16.90;97.70;;;;;;5095184;28;20037;-76
2022/04/05 07:26:54;;;;;;;4.68;2.80;;;16.90;97.50;;;;;;5094239;28;20020;-71
2022/04/05 07:29:20;;;;;;;4.47;2.30;;;16.90;97.50;;;;;;5094171;28;20403;-72
2022/04/05 07:31:45;;;;;;;4.03;2.00;;;16.90;97.50;;;;;;5059453;28;20107;-72
2022/04/05 07:34:11;;;;;;;3.95;2.30;;;16.90;97.40;;;;;;5094368;28;20024;-72
2022/04/05 07:36:37;;;;;;;5.15;2.20;;;16.90;97.40;;;;;;5075819;28;20043;-72
2022/04/05 07:39:03;;;;;;;3.38;1.90;;;16.90;97.40;;;;;;5094488;28;20027;-72
2022/04/05 07:41:29;;;;;;;5.43;2.22;;;16.90;97.30;;;;;;5094391;28;20511;-72
2022/04/05 07:43:55;;;;;;;3.22;1.88;;;16.80;97.40;;;;;;5094475;28;20480;-72
2022/04/05 07:46:21;;;;;;;4.30;2.00;;;16.80;97.40;;;;;;5094146;28;20028;-73
2022/04/05 07:48:49;;;;;;;4.85;2.08;;;16.80;97.40;;;;;;5074677;28;20480;-73
2022/04/05 07:51:16;;;;;;;3.65;1.80;;;16.80;97.60;;;;;;5055749;28;20035;-72
2022/04/05 07:53:42;;;;;;;4.95;2.05;;;16.70;97.60;;;;;;5073571;28;20495;-72
2022/04/05 07:56:08;;;;;;;4.50;1.98;;;16.80;97.60;;;;;;5055672;28;20032;-72
2022/04/05 07:58:34;;;;;;;5.28;2.10;;;16.70;97.40;;;;;;5073507;28;20016;-72
2022/04/05 08:00:59;;;;;;;3.35;2.03;;;16.70;97.30;;;;;;5074160;28;20032;-72
2022/04/05 08:03:27;;;;;;;5.50;2.35;;;16.70;97.40;;;;;;5073850;28;20035;-73
2022/04/05 08:05:53;;;;;;;4.55;2.10;;;16.70;97.40;;;;;;5073413;28;20023;-73
2022/04/05 08:08:19;;;;;;;3.95;1.90;;;16.70;97.30;;;;;;5073624;28;20107;-73
2022/04/05 08:10:45;;;;;;;3.15;1.83;;;16.70;97.30;;;;;;5073207;28;20033;-72
2022/04/05 08:13:10;;;;;;;3.55;1.90;;;16.70;97.40;;;;;;5055539;28;20487;-72
2022/04/05 08:15:39;;;;;;;3.60;2.20;;;16.70;97.40;;;;;;5073044;28;20041;-72
2022/04/05 08:18:05;;;;;;;2.78;1.77;;;16.60;97.40;;;;;;5055383;28;20460;-72
2022/04/05 08:20:32;;;;;;;3.90;2.00;;;16.60;98.00;;;;;;5055078;28;20119;-72
2022/04/05 08:22:57;;;;;;;2.60;1.70;;;16.60;97.90;;;;;;5073616;28;20040;-72
2022/04/05 08:25:23;;;;;;;3.90;1.95;;;16.60;98.20;;;;;;5055181;28;20059;-72
2022/04/05 08:27:49;;;;;;;3.28;2.05;;;16.50;98.10;;;;;;5072904;28;20050;-71
2022/04/05 08:30:17;;;;;;;3.17;1.90;;;16.60;97.80;;;;;;5055128;28;20029;-72
2022/04/05 08:32:44;;;;;;;3.40;1.90;;;16.60;97.70;;;;;;5072819;28;20032;-73
2022/04/05 08:35:13;;;;;;;3.78;1.70;;;16.60;97.60;;;;;;5073024;28;20064;-72
2022/04/05 08:37:40;;;;;;;4.72;2.17;;;16.60;97.60;;;;;;5072740;28;20059;-74
2022/04/05 08:40:07;;;;;;;3.78;2.30;;;16.60;97.90;;;;;;5072951;28;20056;-73
2022/04/05 08:42:37;;;;;;;3.15;1.73;;;16.60;97.70;;;;;;5075986;28;20095;-71
2022/04/05 08:45:06;;;;;;;3.35;2.00;;;16.60;97.60;;;;;;5092471;28;20035;-74
2022/04/05 08:47:34;;;;;;;5.50;1.63;;;16.60;97.60;;;;;;5092872;28;20039;-72
2022/04/05 08:50:02;;;;;;;2.97;1.90;;;16.60;97.80;;;;;;5093099;28;20556;-72
2022/04/05 08:52:28;;;;;;;2.58;1.70;;;16.60;97.60;;;;;;5075064;28;20024;-72
2022/04/05 08:54:54;;;;;;;1.73;1.30;;;16.50;98.00;;;;;;5092532;28;20024;-72
2022/04/05 08:57:20;;;;;;;2.88;1.70;;;16.60;97.80;;;;;;5092860;28;20349;-71
2022/04/05 08:59:45;;;;;;;3.03;1.70;;;16.50;97.70;;;;;;5074371;28;20055;-71
2022/04/05 09:02:13;;;;;;;2.63;1.55;;;16.50;97.80;;;;;;5092670;28;20081;-71
2022/04/05 09:04:39;;;;;;;2.40;1.60;;;16.50;97.90;;;;;;5074210;28;20036;-70
2022/04/05 09:07:26;;;;;;;2.55;1.73;;;16.50;97.90;;;;;;5093123;28;20024;-70
2022/04/05 09:10:23;;;;;;;2.13;1.38;;;16.50;97.90;;;;;;5074168;28;20024;-72
2022/04/05 09:12:50;;;;;;;2.22;1.30;;;16.60;98.90;;;;;;5075573;28;20118;-71
2022/04/05 09:15:16;;;;;;;3.83;1.45;;;16.50;98.40;;;;;;5092373;28;20036;-72
2022/04/05 09:17:43;;;;;;;2.88;1.60;;;16.50;98.70;;;;;;5092259;28;20023;-71
2022/04/05 09:20:11;;;;;;;3.55;1.73;;;16.40;98.30;;;;;;5074267;28;20094;-71
2022/04/05 09:22:36;;;;;;;2.65;1.40;;;16.50;98.40;;;;;;5092079;28;20016;-71
2022/04/05 09:25:06;;;;;;;2.92;1.52;;;16.50;98.10;;;;;;5092307;28;20024;-71
2022/04/05 09:27:52;;;;;;;2.38;1.40;;;16.50;98.20;;;;;;5092102;28;20016;-71
2022/04/05 09:30:31;;;;;;;4.70;1.65;;;16.50;98.20;;;;;;5092454;28;20056;-71
2022/04/05 09:33:02;;;;;;;2.13;1.40;;;16.50;98.20;;;;;;5092467;28;20028;-71
2022/04/05 09:35:39;;;;;;;2.00;1.27;;;16.50;98.30;;;;;;5092402;28;20083;-71
2022/04/05 09:38:12;;;;;;;2.90;1.38;;;16.50;98.10;;;;;;5092076;28;20380;-70
2022/04/05 09:40:38;;;;;;;2.30;1.52;;;16.50;98.30;;;;;;5090889;28;20098;-71
2022/04/05 09:43:08;;;;;;;1.85;1.33;;;16.50;98.20;;;;;;5090705;28;20432;-71
2022/04/05 09:45:53;;;;;;;3.05;1.23;;;16.40;98.20;;;;;;5089557;28;20028;-71
2022/04/05 09:48:23;;;;;;;1.98;1.08;;;16.40;98.20;;;;;;5088868;28;20513;-70
2022/04/05 09:51:09;;;;;;;3.42;1.75;;;16.40;98.20;;;;;;5090931;28;20028;-71
2022/04/05 09:53:56;;;;;;;2.20;1.38;;;16.40;98.40;;;;;;5088990;28;20023;-70
2022/04/05 09:56:30;;;;;;;2.75;1.65;;;16.40;98.30;;;;;;5090236;28;20059;-71
2022/04/05 09:58:57;;;;;;;2.72;1.38;;;16.50;98.50;;;;;;5091010;28;20032;-71
2022/04/05 10:01:25;;;;;;;2.22;1.48;;;16.40;98.40;;;;;;5091718;28;20039;-71
2022/04/05 10:04:12;;;;;;;4.30;1.17;;;16.40;98.60;;;;;;5091338;28;20038;-71
2022/04/05 10:06:43;;;;;;;3.47;1.27;;;16.40;99.00;;;;;;5091514;28;20028;-71
2022/04/05 10:09:09;;;;;;;2.95;1.90;;;16.40;99.10;;;;;;5090520;28;20093;-80
2022/04/05 10:11:37;;;;;;;8.30;4.32;;;16.40;99.90;;;;;;5089690;28;20087;-77
2022/04/05 10:14:04;;;;;;;5.30;3.47;;;16.50;99.90;;;;;;5069772;28;20095;-78
2022/04/05 10:16:31;;;;;;;4.78;3.15;;;16.60;99.90;;;;;;5090530;28;20035;-77
2022/04/05 10:18:59;;;;;;;3.47;2.70;;;16.80;99.90;;;;;;5090497;28;20017;-77
2022/04/05 10:21:27;;;;;;;7.70;2.35;;;16.90;99.90;;;;;;5090576;28;20426;-78
2022/04/05 10:23:57;;;;;;;4.43;2.30;;;17.10;99.80;;;;;;5089977;28;20413;-77
2022/04/05 10:26:30;;;;;;;5.40;1.98;;;17.20;99.40;;;;;;5087714;28;20020;-76
2022/04/05 10:29:03;;;;;;;5.03;2.05;;;17.40;99.00;;;;;;5090391;28;20036;-76
2022/04/05 10:31:42;;;;;;;4.07;2.10;;;17.50;98.60;;;;;;5070567;28;20028;-78
2022/04/05 10:34:16;;;;;;;3.72;2.17;;;17.60;98.40;;;;;;5088184;28;20013;-78
2022/04/05 10:37:03;;;;;;;5.40;2.13;;;17.70;98.00;;;;;;5087155;28;20471;-77
2022/04/05 10:39:29;;;;;;;10.70;3.05;;;17.70;97.80;;;;;;5073391;28;20026;-77
2022/04/05 10:42:12;;;;;;;68.28;20.55;;;17.80;97.80;;;;;;5092240;28;20099;-76
2022/04/05 10:44:46;;;;;;;6.30;2.50;;;17.90;97.50;;;;;;5089093;28;20103;-77
2022/04/05 10:47:11;;;;;;;14.93;3.20;;;18.00;97.50;;;;;;5071620;28;20031;-78
2022/04/05 10:49:44;;;;;;;14.60;3.10;;;18.10;97.30;;;;;;5089647;28;20107;-76
2022/04/05 10:52:11;;;;;;;12.63;2.95;;;18.10;97.20;;;;;;5089831;28;20502;-76
2022/04/05 10:54:43;;;;;;;10.05;2.72;;;18.20;97.10;;;;;;5089416;28;20102;-77
2022/04/05 10:57:30;;;;;;;11.25;2.55;;;18.30;97.70;;;;;;5089896;28;20035;-77
2022/04/05 11:00:08;;;;;;;9.82;2.20;;;18.40;96.80;;;;;;5089346;28;20061;-77
2022/04/05 11:02:47;;;;;;;10.52;2.45;;;18.50;96.60;;;;;;5088349;28;20015;-75
2022/04/05 11:05:18;;;;;;;5.88;2.00;;;18.50;96.40;;;;;;5088610;28;20020;-76
2022/04/05 11:07:59;;;;;;;8.50;2.45;;;18.50;96.20;;;;;;5086977;28;20028;-77
2022/04/05 11:10:49;;;;;;;6.78;2.10;;;18.60;96.00;;;;;;5087607;28;20082;-76
2022/04/05 11:13:33;;;;;;;7.40;2.00;;;18.70;95.80;;;;;;5089221;28;20298;-77
2022/04/05 11:16:00;;;;;;;5.30;1.63;;;18.70;95.70;;;;;;5090132;28;20047;-76
2022/04/05 11:18:33;;;;;;;7.82;1.90;;;18.50;95.70;;;;;;5090049;28;20020;-77
2022/04/05 11:20:59;;;;;;;8.27;2.00;;;18.50;95.90;;;;;;5090614;28;20121;-79
2022/04/05 11:23:51;;;;;;;9.55;2.13;;;18.40;96.00;;;;;;5073243;28;20028;-80
2022/04/05 11:26:24;;;;;;;11.40;2.13;;;18.30;96.10;;;;;;5094754;28;20027;-79
2022/04/05 11:28:50;;;;;;;5.35;1.92;;;18.30;96.20;;;;;;5094009;28;20039;-77
2022/04/05 11:31:40;;;;;;;7.40;2.42;;;18.20;96.20;;;;;;5094566;28;20070;-77
2022/04/05 11:34:34;;;;;;;4.80;1.90;;;18.20;96.30;;;;;;5084611;28;20028;-77
2022/04/05 11:37:00;;;;;;;5.40;1.88;;;18.10;96.40;;;;;;5094554;28;20537;-78
2022/04/05 11:39:26;;;;;;;6.18;1.85;;;18.10;96.40;;;;;;5094686;28;20032;-76
2022/04/05 11:42:10;;;;;;;7.03;1.98;;;18.10;96.50;;;;;;5094131;28;20034;-76
2022/04/05 11:44:36;;;;;;;7.60;1.55;;;18.10;96.60;;;;;;5093856;28;20091;-77
2022/04/05 11:47:03;;;;;;;4.72;1.50;;;18.10;96.60;;;;;;5094138;28;20028;-76
2022/04/05 11:49:40;;;;;;;7.82;2.10;;;18.10;96.60;;;;;;5094373;28;20024;-76
2022/04/05 11:52:07;;;;;;;7.10;1.90;;;18.10;96.60;;;;;;5094159;28;20069;-77
2022/04/05 11:56:00;;;;;;;4.28;1.70;;;18.10;96.50;;;;;;5093752;28;20024;-75
2022/04/05 11:57:20;;;;;;;4.43;1.60;;;18.10;96.60;;;;;;5094061;28;20510;-77
2022/04/05 11:59:45;;;;;;;4.10;1.45;;;18.10;96.60;;;;;;5093702;28;20528;-75
2022/04/05 12:02:11;;;;;;;7.95;1.95;;;18.00;96.60;;;;;;5075870;28;20024;-76
2022/04/05 12:04:36;;;;;;;3.88;1.88;;;18.00;96.70;;;;;;5093546;28;20034;-77
2022/04/05 12:07:03;;;;;;;3.47;1.60;;;18.00;96.70;;;;;;5093813;28;20020;-77
2022/04/05 12:09:30;;;;;;;5.68;1.88;;;18.00;96.80;;;;;;5076008;28;20031;-78
2022/04/05 12:11:55;;;;;;;8.48;2.13;;;18.00;96.80;;;;;;5094032;28;20012;-76
2022/04/05 12:14:24;;;;;;;4.88;1.60;;;18.00;96.80;;;;;;5093545;28;20024;-77
2022/04/05 12:17:01;;;;;;;3.55;1.70;;;18.00;96.90;;;;;;5093490;28;20436;-76
2022/04/05 12:19:35;;;;;;;5.85;1.52;;;17.90;96.90;;;;;;5094009;28;20552;-77
2022/04/05 12:22:06;;;;;;;4.38;1.70;;;17.90;97.00;;;;;;5075400;28;20069;-76
2022/04/05 12:24:41;;;;;;;5.35;1.75;;;17.90;97.10;;;;;;5075081;28;20123;-77
2022/04/05 12:27:06;;;;;;;4.75;1.67;;;17.90;97.10;;;;;;5093382;28;20024;-77
2022/04/05 12:29:40;;;;;;;3.63;1.75;;;17.90;97.10;;;;;;5093053;28;20027;-77
2022/04/05 12:32:15;;;;;;;;;;;17.80;97.20;;;;;;5075844;28;20357;-75
2022/04/05 12:34:42;;;;;;;3.35;1.80;;;17.90;97.20;;;;;;5092751;28;19908;-76
2022/04/05 12:37:14;;;;;;;3.42;1.50;;;17.80;97.30;;;;;;5093271;28;20396;-79
2022/04/05 12:39:50;;;;;;;4.28;1.70;;;17.80;97.40;;;;;;5093045;28;20024;-81
2022/04/05 12:42:16;;;;;;;5.78;2.00;;;17.80;97.40;;;;;;5093213;28;20020;-79
2022/04/05 12:44:48;;;;;;;4.13;1.73;;;17.70;97.40;;;;;;5092875;28;20028;-80
2022/04/05 12:47:16;;;;;;;4.57;2.53;;;17.70;97.50;;;;;;5092988;28;20353;-78
2022/04/05 12:49:49;;;;;;;5.60;1.90;;;17.70;97.50;;;;;;5092745;28;20028;-79
2022/04/05 12:52:15;;;;;;;4.43;2.38;;;17.70;97.60;;;;;;5093033;28;20028;-77